sensor_id;sensor_type;location;lat;lon;timestamp;P1;durP1;ratioP1;P2;durP2;ratioP2
51499;SDS011;39101;53.478;6.158;2024-01-30T00:02:12;38.73;;;28.17;;
51499;SDS011;39101;53.478;6.158;2024-01-30T00:04:38;43.17;;;29.73;;
51499;SDS011;39101;53.478;6.158;2024-01-30T00:07:04;40.93;;;28.93;;
51499;SDS011;39101;53.478;6.158;2024-01-30T00:09:29;42.37;;;29.30;;
51499;SDS011;39101;53.478;6.158;2024-01-30T00:11:55;40.97;;;28.03;;
51499;SDS011;39101;53.478;6.158;2024-01-30T00:14:21;38.10;;;28.57;;
51499;SDS011;39101;53.478;6.158;2024-01-30T00:16:51;42.77;;;30.57;;
51499;SDS011;39101;53.478;6.158;2024-01-30T00:19:17;42.13;;;31.10;;
51499;SDS011;39101;53.478;6.158;2024-01-30T00:21:43;42.97;;;30.90;;
51499;SDS011;39101;53.478;6.158;2024-01-30T00:24:08;44.67;;;29.47;;
51499;SDS011;39101;53.478;6.158;2024-01-30T00:26:34;43.43;;;31.37;;
51499;SDS011;39101;53.478;6.158;2024-01-30T00:29:00;43.47;;;30.67;;
51499;SDS011;39101;53.478;6.158;2024-01-30T00:31:25;43.83;;;30.90;;
51499;SDS011;39101;53.478;6.158;2024-01-30T00:33:51;43.80;;;30.80;;
51499;SDS011;39101;53.478;6.158;2024-01-30T00:36:17;44.80;;;31.33;;
51499;SDS011;39101;53.478;6.158;2024-01-30T00:38:42;45.03;;;30.80;;
51499;SDS011;39101;53.478;6.158;2024-01-30T00:41:08;43.80;;;31.33;;
51499;SDS011;39101;53.478;6.158;2024-01-30T00:43:36;45.97;;;31.47;;
51499;SDS011;39101;53.478;6.158;2024-01-30T00:46:02;43.03;;;30.47;;
51499;SDS011;39101;53.478;6.158;2024-01-30T00:48:28;43.27;;;30.03;;
51499;SDS011;39101;53.478;6.158;2024-01-30T00:50:54;49.17;;;31.43;;
51499;SDS011;39101;53.478;6.158;2024-01-30T00:53:19;45.87;;;31.57;;
51499;SDS011;39101;53.478;6.158;2024-01-30T00:59:07;49.03;;;33.70;;
51499;SDS011;39101;53.478;6.158;2024-01-30T01:01:33;44.07;;;32.77;;
51499;SDS011;39101;53.478;6.158;2024-01-30T01:03:58;46.00;;;30.50;;
51499;SDS011;39101;53.478;6.158;2024-01-30T01:06:25;48.23;;;32.70;;
51499;SDS011;39101;53.478;6.158;2024-01-30T01:08:50;44.20;;;32.17;;
51499;SDS011;39101;53.478;6.158;2024-01-30T01:11:16;49.63;;;32.40;;
51499;SDS011;39101;53.478;6.158;2024-01-30T01:13:41;45.40;;;32.00;;
51499;SDS011;39101;53.478;6.158;2024-01-30T01:16:07;43.73;;;29.37;;
51499;SDS011;39101;53.478;6.158;2024-01-30T01:18:33;46.60;;;31.43;;
51499;SDS011;39101;53.478;6.158;2024-01-30T01:20:58;49.83;;;32.53;;
51499;SDS011;39101;53.478;6.158;2024-01-30T01:23:25;45.37;;;31.40;;
51499;SDS011;39101;53.478;6.158;2024-01-30T01:25:51;50.03;;;33.00;;
51499;SDS011;39101;53.478;6.158;2024-01-30T01:28:16;54.30;;;34.47;;
51499;SDS011;39101;53.478;6.158;2024-01-30T01:30:42;48.40;;;31.90;;
51499;SDS011;39101;53.478;6.158;2024-01-30T01:33:08;54.50;;;34.47;;
51499;SDS011;39101;53.478;6.158;2024-01-30T01:35:34;51.00;;;33.50;;
51499;SDS011;39101;53.478;6.158;2024-01-30T01:38:00;50.23;;;33.87;;
51499;SDS011;39101;53.478;6.158;2024-01-30T01:40:26;49.33;;;32.57;;
51499;SDS011;39101;53.478;6.158;2024-01-30T01:42:52;52.37;;;33.30;;
51499;SDS011;39101;53.478;6.158;2024-01-30T01:45:22;54.25;;;35.10;;
51499;SDS011;39101;53.478;6.158;2024-01-30T01:47:49;51.60;;;34.70;;
51499;SDS011;39101;53.478;6.158;2024-01-30T01:50:16;48.43;;;34.43;;
51499;SDS011;39101;53.478;6.158;2024-01-30T01:52:44;58.67;;;35.33;;
51499;SDS011;39101;53.478;6.158;2024-01-30T01:55:12;51.90;;;33.00;;
51499;SDS011;39101;53.478;6.158;2024-01-30T01:57:39;49.10;;;33.60;;
51499;SDS011;39101;53.478;6.158;2024-01-30T02:00:07;49.97;;;32.13;;
51499;SDS011;39101;53.478;6.158;2024-01-30T02:02:35;53.57;;;35.43;;
51499;SDS011;39101;53.478;6.158;2024-01-30T02:05:02;54.37;;;36.27;;
51499;SDS011;39101;53.478;6.158;2024-01-30T02:07:28;55.20;;;34.70;;
51499;SDS011;39101;53.478;6.158;2024-01-30T02:09:54;49.40;;;33.33;;
51499;SDS011;39101;53.478;6.158;2024-01-30T02:12:21;46.53;;;31.77;;
51499;SDS011;39101;53.478;6.158;2024-01-30T02:14:49;59.20;;;37.70;;
51499;SDS011;39101;53.478;6.158;2024-01-30T02:17:15;53.40;;;33.37;;
51499;SDS011;39101;53.478;6.158;2024-01-30T02:19:41;54.43;;;35.93;;
51499;SDS011;39101;53.478;6.158;2024-01-30T02:22:07;54.70;;;34.70;;
51499;SDS011;39101;53.478;6.158;2024-01-30T02:24:34;55.10;;;34.97;;
51499;SDS011;39101;53.478;6.158;2024-01-30T02:27:00;57.23;;;37.33;;
51499;SDS011;39101;53.478;6.158;2024-01-30T02:29:25;52.83;;;35.13;;
51499;SDS011;39101;53.478;6.158;2024-01-30T02:31:51;55.97;;;35.17;;
51499;SDS011;39101;53.478;6.158;2024-01-30T02:34:18;56.57;;;38.50;;
51499;SDS011;39101;53.478;6.158;2024-01-30T02:36:44;48.27;;;32.07;;
51499;SDS011;39101;53.478;6.158;2024-01-30T02:39:10;52.33;;;34.33;;
51499;SDS011;39101;53.478;6.158;2024-01-30T02:41:36;53.73;;;33.53;;
51499;SDS011;39101;53.478;6.158;2024-01-30T02:44:02;53.17;;;32.60;;
51499;SDS011;39101;53.478;6.158;2024-01-30T02:46:28;49.03;;;32.43;;
51499;SDS011;39101;53.478;6.158;2024-01-30T02:48:54;47.27;;;33.07;;
51499;SDS011;39101;53.478;6.158;2024-01-30T02:51:22;54.03;;;33.27;;
51499;SDS011;39101;53.478;6.158;2024-01-30T02:53:49;47.03;;;31.87;;
51499;SDS011;39101;53.478;6.158;2024-01-30T02:56:15;50.57;;;31.33;;
51499;SDS011;39101;53.478;6.158;2024-01-30T02:58:40;50.17;;;33.20;;
51499;SDS011;39101;53.478;6.158;2024-01-30T03:01:07;52.67;;;33.80;;
51499;SDS011;39101;53.478;6.158;2024-01-30T03:03:33;48.30;;;33.87;;
51499;SDS011;39101;53.478;6.158;2024-01-30T03:06:01;53.47;;;34.03;;
51499;SDS011;39101;53.478;6.158;2024-01-30T03:08:28;53.00;;;35.03;;
51499;SDS011;39101;53.478;6.158;2024-01-30T03:10:54;51.53;;;33.30;;
51499;SDS011;39101;53.478;6.158;2024-01-30T03:13:21;49.13;;;31.83;;
51499;SDS011;39101;53.478;6.158;2024-01-30T03:15:48;48.23;;;32.07;;
51499;SDS011;39101;53.478;6.158;2024-01-30T03:18:14;46.20;;;31.17;;
51499;SDS011;39101;53.478;6.158;2024-01-30T03:20:39;53.80;;;33.20;;
51499;SDS011;39101;53.478;6.158;2024-01-30T03:23:05;49.37;;;32.47;;
51499;SDS011;39101;53.478;6.158;2024-01-30T03:25:31;51.23;;;32.77;;
51499;SDS011;39101;53.478;6.158;2024-01-30T03:27:56;57.27;;;35.07;;
51499;SDS011;39101;53.478;6.158;2024-01-30T03:30:22;53.33;;;34.83;;
51499;SDS011;39101;53.478;6.158;2024-01-30T03:32:48;52.57;;;33.73;;
51499;SDS011;39101;53.478;6.158;2024-01-30T03:35:13;50.30;;;32.10;;
51499;SDS011;39101;53.478;6.158;2024-01-30T03:37:40;53.07;;;32.60;;
51499;SDS011;39101;53.478;6.158;2024-01-30T03:40:06;57.43;;;35.73;;
51499;SDS011;39101;53.478;6.158;2024-01-30T03:42:32;52.00;;;32.77;;
51499;SDS011;39101;53.478;6.158;2024-01-30T03:44:59;49.80;;;32.63;;
51499;SDS011;39101;53.478;6.158;2024-01-30T03:47:24;51.40;;;33.33;;
51499;SDS011;39101;53.478;6.158;2024-01-30T03:49:50;57.00;;;34.77;;
51499;SDS011;39101;53.478;6.158;2024-01-30T03:52:16;56.93;;;33.63;;
51499;SDS011;39101;53.478;6.158;2024-01-30T03:54:42;58.13;;;35.30;;
51499;SDS011;39101;53.478;6.158;2024-01-30T03:57:08;55.20;;;34.50;;
51499;SDS011;39101;53.478;6.158;2024-01-30T03:59:33;52.97;;;34.40;;
51499;SDS011;39101;53.478;6.158;2024-01-30T04:01:59;45.87;;;32.40;;
51499;SDS011;39101;53.478;6.158;2024-01-30T04:04:25;54.93;;;33.17;;
51499;SDS011;39101;53.478;6.158;2024-01-30T04:06:51;51.17;;;31.80;;
51499;SDS011;39101;53.478;6.158;2024-01-30T04:09:16;53.50;;;33.53;;
51499;SDS011;39101;53.478;6.158;2024-01-30T04:11:42;57.90;;;33.10;;
51499;SDS011;39101;53.478;6.158;2024-01-30T04:14:08;50.43;;;32.03;;
51499;SDS011;39101;53.478;6.158;2024-01-30T04:16:34;52.43;;;32.73;;
51499;SDS011;39101;53.478;6.158;2024-01-30T04:18:59;53.37;;;32.73;;
51499;SDS011;39101;53.478;6.158;2024-01-30T04:21:25;51.33;;;33.40;;
51499;SDS011;39101;53.478;6.158;2024-01-30T04:23:51;49.73;;;33.03;;
51499;SDS011;39101;53.478;6.158;2024-01-30T04:26:18;56.07;;;33.97;;
51499;SDS011;39101;53.478;6.158;2024-01-30T04:28:46;52.40;;;30.57;;
51499;SDS011;39101;53.478;6.158;2024-01-30T04:31:12;50.97;;;29.23;;
51499;SDS011;39101;53.478;6.158;2024-01-30T04:33:37;44.63;;;30.33;;
51499;SDS011;39101;53.478;6.158;2024-01-30T04:36:03;43.93;;;29.57;;
51499;SDS011;39101;53.478;6.158;2024-01-30T04:38:30;49.60;;;30.50;;
51499;SDS011;39101;53.478;6.158;2024-01-30T04:40:56;42.57;;;28.80;;
51499;SDS011;39101;53.478;6.158;2024-01-30T04:43:23;43.40;;;29.77;;
51499;SDS011;39101;53.478;6.158;2024-01-30T04:45:49;41.93;;;28.83;;
51499;SDS011;39101;53.478;6.158;2024-01-30T04:48:15;45.83;;;30.87;;
51499;SDS011;39101;53.478;6.158;2024-01-30T04:50:40;48.40;;;29.67;;
51499;SDS011;39101;53.478;6.158;2024-01-30T04:53:06;46.63;;;30.37;;
51499;SDS011;39101;53.478;6.158;2024-01-30T04:55:32;42.87;;;29.30;;
51499;SDS011;39101;53.478;6.158;2024-01-30T04:57:58;48.87;;;30.97;;
51499;SDS011;39101;53.478;6.158;2024-01-30T05:00:24;43.67;;;28.43;;
51499;SDS011;39101;53.478;6.158;2024-01-30T05:02:49;42.40;;;29.67;;
51499;SDS011;39101;53.478;6.158;2024-01-30T05:05:15;46.93;;;31.07;;
51499;SDS011;39101;53.478;6.158;2024-01-30T05:07:41;45.97;;;29.63;;
51499;SDS011;39101;53.478;6.158;2024-01-30T05:10:07;45.57;;;28.90;;
51499;SDS011;39101;53.478;6.158;2024-01-30T05:12:35;40.80;;;28.03;;
51499;SDS011;39101;53.478;6.158;2024-01-30T05:15:03;48.65;;;28.95;;
51499;SDS011;39101;53.478;6.158;2024-01-30T05:17:29;43.03;;;28.17;;
51499;SDS011;39101;53.478;6.158;2024-01-30T05:19:55;46.63;;;27.83;;
51499;SDS011;39101;53.478;6.158;2024-01-30T05:22:21;39.53;;;26.97;;
51499;SDS011;39101;53.478;6.158;2024-01-30T05:24:46;40.67;;;27.50;;
51499;SDS011;39101;53.478;6.158;2024-01-30T05:27:12;45.47;;;29.47;;
51499;SDS011;39101;53.478;6.158;2024-01-30T05:29:41;41.27;;;29.17;;
51499;SDS011;39101;53.478;6.158;2024-01-30T05:32:06;42.97;;;28.60;;
51499;SDS011;39101;53.478;6.158;2024-01-30T05:34:32;42.60;;;29.47;;
51499;SDS011;39101;53.478;6.158;2024-01-30T05:36:58;42.00;;;28.37;;
51499;SDS011;39101;53.478;6.158;2024-01-30T05:39:24;40.77;;;28.37;;
51499;SDS011;39101;53.478;6.158;2024-01-30T05:41:51;42.40;;;28.23;;
51499;SDS011;39101;53.478;6.158;2024-01-30T05:44:17;43.47;;;27.70;;
51499;SDS011;39101;53.478;6.158;2024-01-30T05:46:42;38.83;;;27.93;;
51499;SDS011;39101;53.478;6.158;2024-01-30T05:49:08;39.17;;;26.97;;
51499;SDS011;39101;53.478;6.158;2024-01-30T05:51:34;41.70;;;28.00;;
51499;SDS011;39101;53.478;6.158;2024-01-30T05:54:00;37.83;;;25.33;;
51499;SDS011;39101;53.478;6.158;2024-01-30T05:56:31;42.17;;;25.20;;
51499;SDS011;39101;53.478;6.158;2024-01-30T05:58:57;44.30;;;28.63;;
51499;SDS011;39101;53.478;6.158;2024-01-30T06:01:24;36.47;;;25.90;;
51499;SDS011;39101;53.478;6.158;2024-01-30T06:03:50;38.17;;;26.03;;
51499;SDS011;39101;53.478;6.158;2024-01-30T06:06:16;38.37;;;24.87;;
51499;SDS011;39101;53.478;6.158;2024-01-30T06:08:41;44.93;;;26.83;;
51499;SDS011;39101;53.478;6.158;2024-01-30T06:11:09;40.83;;;25.80;;
51499;SDS011;39101;53.478;6.158;2024-01-30T06:13:37;40.35;;;24.50;;
51499;SDS011;39101;53.478;6.158;2024-01-30T06:16:03;39.93;;;25.50;;
51499;SDS011;39101;53.478;6.158;2024-01-30T06:18:29;37.67;;;25.73;;
51499;SDS011;39101;53.478;6.158;2024-01-30T06:20:56;42.53;;;26.00;;
51499;SDS011;39101;53.478;6.158;2024-01-30T06:23:22;40.57;;;26.43;;
51499;SDS011;39101;53.478;6.158;2024-01-30T06:25:47;40.67;;;25.23;;
51499;SDS011;39101;53.478;6.158;2024-01-30T06:28:14;36.07;;;24.23;;
51499;SDS011;39101;53.478;6.158;2024-01-30T06:30:40;41.37;;;24.70;;
51499;SDS011;39101;53.478;6.158;2024-01-30T06:33:05;39.00;;;25.80;;
51499;SDS011;39101;53.478;6.158;2024-01-30T06:35:32;35.70;;;24.53;;
51499;SDS011;39101;53.478;6.158;2024-01-30T06:40:28;41.07;;;23.80;;
51499;SDS011;39101;53.478;6.158;2024-01-30T06:42:54;35.77;;;22.60;;
51499;SDS011;39101;53.478;6.158;2024-01-30T06:45:20;38.27;;;24.37;;
51499;SDS011;39101;53.478;6.158;2024-01-30T06:47:46;39.53;;;22.50;;
51499;SDS011;39101;53.478;6.158;2024-01-30T06:50:12;35.43;;;22.00;;
51499;SDS011;39101;53.478;6.158;2024-01-30T06:52:38;40.40;;;23.60;;
51499;SDS011;39101;53.478;6.158;2024-01-30T06:55:04;34.37;;;22.57;;
51499;SDS011;39101;53.478;6.158;2024-01-30T06:57:31;38.03;;;23.50;;
51499;SDS011;39101;53.478;6.158;2024-01-30T06:59:57;35.00;;;23.37;;
51499;SDS011;39101;53.478;6.158;2024-01-30T07:02:26;37.13;;;23.03;;
51499;SDS011;39101;53.478;6.158;2024-01-30T07:04:51;35.77;;;22.53;;
51499;SDS011;39101;53.478;6.158;2024-01-30T07:07:17;34.47;;;21.73;;
51499;SDS011;39101;53.478;6.158;2024-01-30T07:09:43;35.07;;;23.80;;
51499;SDS011;39101;53.478;6.158;2024-01-30T07:12:08;29.80;;;21.90;;
51499;SDS011;39101;53.478;6.158;2024-01-30T07:14:34;37.07;;;22.77;;
51499;SDS011;39101;53.478;6.158;2024-01-30T07:17:00;32.87;;;22.10;;
51499;SDS011;39101;53.478;6.158;2024-01-30T07:19:27;30.30;;;22.27;;
51499;SDS011;39101;53.478;6.158;2024-01-30T07:21:53;33.20;;;21.83;;
51499;SDS011;39101;53.478;6.158;2024-01-30T07:24:18;32.73;;;22.07;;
51499;SDS011;39101;53.478;6.158;2024-01-30T07:26:44;31.17;;;22.13;;
51499;SDS011;39101;53.478;6.158;2024-01-30T07:29:11;30.07;;;20.87;;
51499;SDS011;39101;53.478;6.158;2024-01-30T07:31:37;30.67;;;20.80;;
51499;SDS011;39101;53.478;6.158;2024-01-30T07:34:02;28.47;;;19.67;;
51499;SDS011;39101;53.478;6.158;2024-01-30T07:36:30;31.27;;;21.40;;
51499;SDS011;39101;53.478;6.158;2024-01-30T07:38:56;28.30;;;19.70;;
51499;SDS011;39101;53.478;6.158;2024-01-30T07:41:21;29.83;;;19.97;;
51499;SDS011;39101;53.478;6.158;2024-01-30T07:43:49;29.03;;;21.37;;
51499;SDS011;39101;53.478;6.158;2024-01-30T07:46:15;33.27;;;20.97;;
51499;SDS011;39101;53.478;6.158;2024-01-30T07:48:40;30.53;;;20.30;;
51499;SDS011;39101;53.478;6.158;2024-01-30T07:51:07;31.00;;;19.57;;
51499;SDS011;39101;53.478;6.158;2024-01-30T07:53:33;27.70;;;18.83;;
51499;SDS011;39101;53.478;6.158;2024-01-30T07:55:59;28.17;;;20.67;;
51499;SDS011;39101;53.478;6.158;2024-01-30T07:58:25;28.23;;;18.77;;
51499;SDS011;39101;53.478;6.158;2024-01-30T08:00:52;28.93;;;20.23;;
51499;SDS011;39101;53.478;6.158;2024-01-30T08:03:23;28.53;;;20.03;;
51499;SDS011;39101;53.478;6.158;2024-01-30T08:05:49;31.83;;;20.67;;
51499;SDS011;39101;53.478;6.158;2024-01-30T08:08:15;29.20;;;19.47;;
51499;SDS011;39101;53.478;6.158;2024-01-30T08:14:12;28.60;;;19.07;;
51499;SDS011;39101;53.478;6.158;2024-01-30T08:16:39;26.57;;;18.07;;
51499;SDS011;39101;53.478;6.158;2024-01-30T08:19:04;28.80;;;20.30;;
51499;SDS011;39101;53.478;6.158;2024-01-30T08:21:30;26.57;;;18.03;;
51499;SDS011;39101;53.478;6.158;2024-01-30T08:24:02;30.50;;;18.80;;
51499;SDS011;39101;53.478;6.158;2024-01-30T08:26:29;29.80;;;18.60;;
51499;SDS011;39101;53.478;6.158;2024-01-30T08:28:56;29.23;;;18.97;;
51499;SDS011;39101;53.478;6.158;2024-01-30T08:31:22;26.30;;;18.73;;
51499;SDS011;39101;53.478;6.158;2024-01-30T08:33:48;27.30;;;18.53;;
51499;SDS011;39101;53.478;6.158;2024-01-30T08:36:14;24.47;;;17.37;;
51499;SDS011;39101;53.478;6.158;2024-01-30T08:38:40;26.93;;;18.07;;
51499;SDS011;39101;53.478;6.158;2024-01-30T08:41:07;28.03;;;18.07;;
51499;SDS011;39101;53.478;6.158;2024-01-30T08:43:33;22.77;;;16.50;;
51499;SDS011;39101;53.478;6.158;2024-01-30T08:45:59;23.27;;;17.50;;
51499;SDS011;39101;53.478;6.158;2024-01-30T08:48:25;26.83;;;17.53;;
51499;SDS011;39101;53.478;6.158;2024-01-30T08:50:51;24.40;;;16.83;;
51499;SDS011;39101;53.478;6.158;2024-01-30T08:53:17;25.70;;;18.53;;
51499;SDS011;39101;53.478;6.158;2024-01-30T08:55:43;24.77;;;17.47;;
51499;SDS011;39101;53.478;6.158;2024-01-30T08:58:11;28.43;;;18.87;;
51499;SDS011;39101;53.478;6.158;2024-01-30T09:00:37;26.47;;;17.37;;
51499;SDS011;39101;53.478;6.158;2024-01-30T09:03:03;25.33;;;16.87;;
51499;SDS011;39101;53.478;6.158;2024-01-30T09:05:28;24.80;;;17.00;;
51499;SDS011;39101;53.478;6.158;2024-01-30T09:07:54;30.53;;;17.53;;
51499;SDS011;39101;53.478;6.158;2024-01-30T09:10:22;24.20;;;15.97;;
51499;SDS011;39101;53.478;6.158;2024-01-30T09:12:48;23.40;;;15.90;;
51499;SDS011;39101;53.478;6.158;2024-01-30T09:15:14;26.50;;;17.30;;
51499;SDS011;39101;53.478;6.158;2024-01-30T09:17:40;25.47;;;16.30;;
51499;SDS011;39101;53.478;6.158;2024-01-30T09:20:06;22.63;;;16.53;;
51499;SDS011;39101;53.478;6.158;2024-01-30T09:22:33;22.27;;;16.47;;
51499;SDS011;39101;53.478;6.158;2024-01-30T09:27:28;24.80;;;15.80;;
51499;SDS011;39101;53.478;6.158;2024-01-30T09:29:54;24.10;;;15.57;;
51499;SDS011;39101;53.478;6.158;2024-01-30T09:32:21;23.37;;;16.37;;
51499;SDS011;39101;53.478;6.158;2024-01-30T09:34:47;24.20;;;15.57;;
51499;SDS011;39101;53.478;6.158;2024-01-30T09:37:12;24.20;;;17.00;;
51499;SDS011;39101;53.478;6.158;2024-01-30T09:39:40;22.17;;;16.27;;
51499;SDS011;39101;53.478;6.158;2024-01-30T09:44:58;26.57;;;15.63;;
51499;SDS011;39101;53.478;6.158;2024-01-30T09:47:26;26.13;;;16.03;;
51499;SDS011;39101;53.478;6.158;2024-01-30T09:49:52;27.50;;;16.43;;
51499;SDS011;39101;53.478;6.158;2024-01-30T09:52:20;22.50;;;16.90;;
51499;SDS011;39101;53.478;6.158;2024-01-30T09:54:45;23.43;;;16.00;;
51499;SDS011;39101;53.478;6.158;2024-01-30T09:57:14;31.63;;;18.33;;
51499;SDS011;39101;53.478;6.158;2024-01-30T09:59:41;27.63;;;16.80;;
51499;SDS011;39101;53.478;6.158;2024-01-30T10:02:11;24.10;;;16.47;;
51499;SDS011;39101;53.478;6.158;2024-01-30T10:04:38;26.67;;;16.40;;
51499;SDS011;39101;53.478;6.158;2024-01-30T10:07:04;27.77;;;16.50;;
51499;SDS011;39101;53.478;6.158;2024-01-30T10:09:31;27.13;;;17.20;;
51499;SDS011;39101;53.478;6.158;2024-01-30T10:11:59;23.80;;;15.50;;
51499;SDS011;39101;53.478;6.158;2024-01-30T10:14:25;22.20;;;14.47;;
51499;SDS011;39101;53.478;6.158;2024-01-30T10:16:50;27.50;;;16.10;;
51499;SDS011;39101;53.478;6.158;2024-01-30T10:19:16;25.30;;;14.67;;
51499;SDS011;39101;53.478;6.158;2024-01-30T10:21:42;25.77;;;15.13;;
51499;SDS011;39101;53.478;6.158;2024-01-30T10:24:10;23.13;;;14.03;;
51499;SDS011;39101;53.478;6.158;2024-01-30T10:26:39;26.67;;;14.73;;
51499;SDS011;39101;53.478;6.158;2024-01-30T10:29:05;26.93;;;15.97;;
51499;SDS011;39101;53.478;6.158;2024-01-30T10:31:32;23.57;;;15.00;;
51499;SDS011;39101;53.478;6.158;2024-01-30T10:34:00;24.37;;;16.10;;
51499;SDS011;39101;53.478;6.158;2024-01-30T10:36:28;26.30;;;15.27;;
51499;SDS011;39101;53.478;6.158;2024-01-30T10:38:59;24.40;;;17.07;;
51499;SDS011;39101;53.478;6.158;2024-01-30T10:41:28;24.27;;;15.13;;
51499;SDS011;39101;53.478;6.158;2024-01-30T10:47:31;24.47;;;14.20;;
51499;SDS011;39101;53.478;6.158;2024-01-30T10:49:59;21.80;;;13.97;;
51499;SDS011;39101;53.478;6.158;2024-01-30T10:52:26;28.23;;;14.07;;
51499;SDS011;39101;53.478;6.158;2024-01-30T10:54:54;20.87;;;12.77;;
51499;SDS011;39101;53.478;6.158;2024-01-30T10:57:23;23.37;;;13.57;;
51499;SDS011;39101;53.478;6.158;2024-01-30T10:59:50;23.87;;;13.07;;
51499;SDS011;39101;53.478;6.158;2024-01-30T11:02:19;25.73;;;12.80;;
51499;SDS011;39101;53.478;6.158;2024-01-30T11:04:45;21.33;;;11.33;;
51499;SDS011;39101;53.478;6.158;2024-01-30T11:07:18;18.60;;;10.30;;
51499;SDS011;39101;53.478;6.158;2024-01-30T11:12:23;18.43;;;8.13;;
51499;SDS011;39101;53.478;6.158;2024-01-30T11:15:01;17.87;;;8.53;;
51499;SDS011;39101;53.478;6.158;2024-01-30T11:17:29;15.23;;;7.17;;
51499;SDS011;39101;53.478;6.158;2024-01-30T11:20:11;18.15;;;7.93;;
51499;SDS011;39101;53.478;6.158;2024-01-30T11:22:42;17.90;;;6.73;;
51499;SDS011;39101;53.478;6.158;2024-01-30T11:25:13;16.87;;;6.60;;
51499;SDS011;39101;53.478;6.158;2024-01-30T11:27:42;16.43;;;6.50;;
51499;SDS011;39101;53.478;6.158;2024-01-30T11:30:31;12.00;;;5.93;;
51499;SDS011;39101;53.478;6.158;2024-01-30T11:35:36;13.83;;;5.10;;
51499;SDS011;39101;53.478;6.158;2024-01-30T11:38:26;10.70;;;4.83;;
51499;SDS011;39101;53.478;6.158;2024-01-30T11:40:53;11.80;;;5.30;;
51499;SDS011;39101;53.478;6.158;2024-01-30T11:46:59;12.97;;;4.43;;
51499;SDS011;39101;53.478;6.158;2024-01-30T11:49:25;16.80;;;5.00;;
51499;SDS011;39101;53.478;6.158;2024-01-30T11:51:51;15.63;;;5.37;;
51499;SDS011;39101;53.478;6.158;2024-01-30T11:54:18;11.87;;;4.23;;
51499;SDS011;39101;53.478;6.158;2024-01-30T11:56:44;10.50;;;4.37;;
51499;SDS011;39101;53.478;6.158;2024-01-30T11:59:09;16.17;;;3.87;;
51499;SDS011;39101;53.478;6.158;2024-01-30T12:01:35;13.43;;;4.00;;
51499;SDS011;39101;53.478;6.158;2024-01-30T12:04:02;13.73;;;4.87;;
51499;SDS011;39101;53.478;6.158;2024-01-30T12:06:34;16.53;;;5.13;;
51499;SDS011;39101;53.478;6.158;2024-01-30T12:09:00;13.70;;;4.13;;
51499;SDS011;39101;53.478;6.158;2024-01-30T12:11:29;10.65;;;3.42;;
51499;SDS011;39101;53.478;6.158;2024-01-30T12:13:55;12.73;;;3.50;;
51499;SDS011;39101;53.478;6.158;2024-01-30T12:16:23;11.40;;;3.50;;
51499;SDS011;39101;53.478;6.158;2024-01-30T12:18:49;10.20;;;3.00;;
51499;SDS011;39101;53.478;6.158;2024-01-30T12:21:29;13.37;;;3.60;;
51499;SDS011;39101;53.478;6.158;2024-01-30T12:23:56;10.88;;;3.90;;
51499;SDS011;39101;53.478;6.158;2024-01-30T12:26:24;9.47;;;3.50;;
51499;SDS011;39101;53.478;6.158;2024-01-30T12:28:56;6.68;;;3.08;;
51499;SDS011;39101;53.478;6.158;2024-01-30T12:31:31;9.93;;;3.33;;
51499;SDS011;39101;53.478;6.158;2024-01-30T12:33:59;12.43;;;3.43;;
51499;SDS011;39101;53.478;6.158;2024-01-30T12:36:25;8.00;;;3.00;;
51499;SDS011;39101;53.478;6.158;2024-01-30T12:38:51;10.73;;;4.00;;
51499;SDS011;39101;53.478;6.158;2024-01-30T12:41:17;7.27;;;2.90;;
51499;SDS011;39101;53.478;6.158;2024-01-30T12:43:45;8.97;;;3.13;;
51499;SDS011;39101;53.478;6.158;2024-01-30T12:46:12;8.27;;;3.00;;
51499;SDS011;39101;53.478;6.158;2024-01-30T12:48:38;6.90;;;3.00;;
51499;SDS011;39101;53.478;6.158;2024-01-30T12:51:04;7.40;;;2.50;;
51499;SDS011;39101;53.478;6.158;2024-01-30T12:53:30;8.03;;;2.10;;
51499;SDS011;39101;53.478;6.158;2024-01-30T12:55:58;10.70;;;2.73;;
51499;SDS011;39101;53.478;6.158;2024-01-30T12:58:24;7.97;;;2.50;;
51499;SDS011;39101;53.478;6.158;2024-01-30T13:00:50;12.83;;;2.93;;
51499;SDS011;39101;53.478;6.158;2024-01-30T13:03:16;7.53;;;2.37;;
51499;SDS011;39101;53.478;6.158;2024-01-30T13:05:43;5.03;;;2.60;;
51499;SDS011;39101;53.478;6.158;2024-01-30T13:08:09;8.83;;;2.67;;
51499;SDS011;39101;53.478;6.158;2024-01-30T13:10:35;10.93;;;2.90;;
51499;SDS011;39101;53.478;6.158;2024-01-30T13:13:00;10.93;;;2.83;;
51499;SDS011;39101;53.478;6.158;2024-01-30T13:15:27;11.27;;;2.97;;
51499;SDS011;39101;53.478;6.158;2024-01-30T13:17:52;7.27;;;2.70;;
51499;SDS011;39101;53.478;6.158;2024-01-30T13:20:19;9.70;;;2.80;;
51499;SDS011;39101;53.478;6.158;2024-01-30T13:22:48;11.27;;;3.30;;
51499;SDS011;39101;53.478;6.158;2024-01-30T13:25:15;6.67;;;2.73;;
51499;SDS011;39101;53.478;6.158;2024-01-30T13:27:41;6.27;;;2.60;;
51499;SDS011;39101;53.478;6.158;2024-01-30T13:30:07;5.80;;;2.40;;
51499;SDS011;39101;53.478;6.158;2024-01-30T13:32:34;8.30;;;3.33;;
51499;SDS011;39101;53.478;6.158;2024-01-30T13:35:00;6.43;;;2.60;;
51499;SDS011;39101;53.478;6.158;2024-01-30T13:37:26;5.40;;;2.40;;
51499;SDS011;39101;53.478;6.158;2024-01-30T13:39:52;9.60;;;2.93;;
51499;SDS011;39101;53.478;6.158;2024-01-30T13:42:17;8.63;;;2.40;;
51499;SDS011;39101;53.478;6.158;2024-01-30T13:44:44;13.33;;;3.00;;
51499;SDS011;39101;53.478;6.158;2024-01-30T13:47:10;5.20;;;2.07;;
51499;SDS011;39101;53.478;6.158;2024-01-30T13:49:35;7.30;;;2.20;;
51499;SDS011;39101;53.478;6.158;2024-01-30T13:52:01;7.00;;;1.97;;
51499;SDS011;39101;53.478;6.158;2024-01-30T13:54:28;4.30;;;1.77;;
51499;SDS011;39101;53.478;6.158;2024-01-30T13:56:55;7.90;;;1.87;;
51499;SDS011;39101;53.478;6.158;2024-01-30T13:59:21;8.93;;;2.80;;
51499;SDS011;39101;53.478;6.158;2024-01-30T14:01:49;10.20;;;3.03;;
51499;SDS011;39101;53.478;6.158;2024-01-30T14:04:16;6.90;;;1.90;;
51499;SDS011;39101;53.478;6.158;2024-01-30T14:06:41;4.63;;;1.90;;
51499;SDS011;39101;53.478;6.158;2024-01-30T14:09:07;6.70;;;1.80;;
51499;SDS011;39101;53.478;6.158;2024-01-30T14:11:33;4.37;;;1.67;;
51499;SDS011;39101;53.478;6.158;2024-01-30T14:13:59;6.03;;;1.77;;
51499;SDS011;39101;53.478;6.158;2024-01-30T14:16:24;4.07;;;1.40;;
51499;SDS011;39101;53.478;6.158;2024-01-30T14:18:50;3.13;;;1.67;;
51499;SDS011;39101;53.478;6.158;2024-01-30T14:21:16;5.37;;;1.90;;
51499;SDS011;39101;53.478;6.158;2024-01-30T14:23:41;5.77;;;1.63;;
51499;SDS011;39101;53.478;6.158;2024-01-30T14:26:07;4.83;;;2.20;;
51499;SDS011;39101;53.478;6.158;2024-01-30T14:28:33;5.80;;;2.20;;
51499;SDS011;39101;53.478;6.158;2024-01-30T14:30:59;5.77;;;2.03;;
51499;SDS011;39101;53.478;6.158;2024-01-30T14:33:25;8.30;;;2.17;;
51499;SDS011;39101;53.478;6.158;2024-01-30T14:35:51;8.30;;;2.60;;
51499;SDS011;39101;53.478;6.158;2024-01-30T14:38:17;8.90;;;3.50;;
51499;SDS011;39101;53.478;6.158;2024-01-30T14:40:47;9.13;;;2.72;;
51499;SDS011;39101;53.478;6.158;2024-01-30T14:43:12;11.00;;;3.20;;
51499;SDS011;39101;53.478;6.158;2024-01-30T14:48:46;8.63;;;3.37;;
51499;SDS011;39101;53.478;6.158;2024-01-30T14:51:13;9.50;;;3.00;;
51499;SDS011;39101;53.478;6.158;2024-01-30T14:53:39;11.00;;;2.83;;